createdAt,value
2023-09-05T00:02:10.519Z,47.85
2023-09-05T00:04:40.188Z,47.79
2023-09-05T00:07:09.680Z,47.84
2023-09-05T00:09:38.676Z,48.04
2023-09-05T00:12:07.990Z,48.03
2023-09-05T00:14:37.465Z,48.10
2023-09-05T00:17:06.101Z,48.14
2023-09-05T00:19:34.432Z,47.71
2023-09-05T00:22:02.677Z,48.18
2023-09-05T00:24:33.380Z,48.39
2023-09-05T00:27:03.552Z,48.66
2023-09-05T00:29:32.433Z,48.64
2023-09-05T00:32:05.544Z,49.08
2023-09-05T00:34:38.451Z,49.31
2023-09-05T00:37:09.165Z,50.00
2023-09-05T00:39:42.224Z,50.16
2023-09-05T00:42:12.902Z,49.92
2023-09-05T00:44:41.487Z,50.55
2023-09-05T00:47:13.179Z,50.43
2023-09-05T00:49:43.646Z,51.16
2023-09-05T00:52:13.241Z,50.80
2023-09-05T00:54:45.707Z,50.85
2023-09-05T00:57:19.695Z,51.23
2023-09-05T00:59:48.188Z,51.39
2023-09-05T01:02:16.514Z,51.14
2023-09-05T01:04:45.128Z,51.62
2023-09-05T01:07:29.930Z,51.64
2023-09-05T01:10:07.340Z,52.04
2023-09-05T01:12:35.756Z,52.31
2023-09-05T01:15:04.004Z,52.23
2023-09-05T01:17:32.292Z,52.95
2023-09-05T01:20:02.992Z,53.10
2023-09-05T01:22:37.988Z,53.40
2023-09-05T01:25:09.591Z,53.34
2023-09-05T01:27:37.967Z,53.51
2023-09-05T01:30:10.062Z,53.71
2023-09-05T01:32:40.391Z,53.79
2023-09-05T01:35:09.904Z,53.61
2023-09-05T01:37:38.182Z,53.95
2023-09-05T01:40:07.325Z,54.48
2023-09-05T01:42:35.621Z,54.66
2023-09-05T01:45:03.906Z,55.03
2023-09-05T01:47:34.040Z,55.05
2023-09-05T01:50:02.365Z,55.16
2023-09-05T01:52:30.613Z,54.95
2023-09-05T01:54:58.854Z,54.96
2023-09-05T01:57:28.929Z,54.92
2023-09-05T01:59:57.163Z,54.94
2023-09-05T02:02:25.755Z,55.09
2023-09-05T02:04:54.092Z,55.10
2023-09-05T02:07:22.347Z,55.38
2023-09-05T02:09:50.555Z,55.53
2023-09-05T02:12:18.774Z,55.50
2023-09-05T02:14:49.288Z,55.68
2023-09-05T02:17:20.126Z,55.93
2023-09-05T02:19:48.634Z,55.94
2023-09-05T02:22:16.865Z,56.26
2023-09-05T02:24:45.123Z,56.41
2023-09-05T02:27:13.365Z,56.45
2023-09-05T02:29:41.771Z,56.59
2023-09-05T02:32:10.007Z,56.49
2023-09-05T02:34:38.250Z,56.59
2023-09-05T02:37:06.487Z,56.69
2023-09-05T02:39:34.806Z,56.69
2023-09-05T02:42:03.000Z,56.71
2023-09-05T02:44:31.266Z,56.72
2023-09-05T02:46:59.565Z,56.81
2023-09-05T02:49:27.845Z,56.95
2023-09-05T02:51:56.096Z,57.10
2023-09-05T02:54:24.344Z,57.33
2023-09-05T02:56:53.028Z,57.44
2023-09-05T02:59:21.389Z,57.51
2023-09-05T03:01:50.175Z,57.62
2023-09-05T03:04:18.782Z,57.64
2023-09-05T03:06:48.710Z,57.79
2023-09-05T03:09:17.037Z,58.08
2023-09-05T03:11:45.304Z,58.33
2023-09-05T03:14:13.524Z,58.11
2023-09-05T03:16:42.028Z,58.28
2023-09-05T03:19:13.909Z,58.74
2023-09-05T03:21:42.524Z,58.77
2023-09-05T03:24:10.764Z,58.93
2023-09-05T03:26:39.177Z,59.16
2023-09-05T03:29:08.803Z,59.40
2023-09-05T03:31:37.206Z,59.69
2023-09-05T03:34:05.521Z,59.50
2023-09-05T03:36:34.850Z,59.74
2023-09-05T03:39:03.122Z,59.70
2023-09-05T03:41:32.470Z,59.94
2023-09-05T03:44:00.760Z,60.00
2023-09-05T03:46:29.109Z,60.14
2023-09-05T03:48:59.305Z,60.41
2023-09-05T03:51:29.697Z,60.29
2023-09-05T03:54:01.029Z,60.40
2023-09-05T03:56:29.440Z,60.97
2023-09-05T03:58:57.792Z,60.47
2023-09-05T04:01:26.635Z,60.65
2023-09-05T04:03:55.132Z,60.85
2023-09-05T04:06:23.390Z,60.86
2023-09-05T04:08:51.636Z,61.22
2023-09-05T04:11:19.956Z,61.24
2023-09-05T04:13:48.192Z,61.17
2023-09-05T04:16:16.496Z,61.42
2023-09-05T04:18:44.844Z,61.37
2023-09-05T04:21:13.246Z,61.55
2023-09-05T04:23:41.586Z,61.52
2023-09-05T04:26:09.889Z,61.51
2023-09-05T04:28:38.155Z,61.57
2023-09-05T04:31:07.055Z,61.89
2023-09-05T04:33:39.360Z,61.94
2023-09-05T04:36:11.046Z,62.07
2023-09-05T04:38:40.023Z,62.01
2023-09-05T04:41:09.697Z,62.15
2023-09-05T04:43:38.230Z,62.19
2023-09-05T04:46:07.985Z,62.18
2023-09-05T04:48:36.582Z,62.55
2023-09-05T04:51:05.971Z,62.51
2023-09-05T04:53:34.663Z,62.77
2023-09-05T04:56:04.012Z,62.73
2023-09-05T04:58:33.114Z,62.77
2023-09-05T05:01:05.642Z,63.10
2023-09-05T05:03:37.037Z,63.06
2023-09-05T05:06:05.688Z,63.37
2023-09-05T05:08:34.051Z,63.41
2023-09-05T05:11:06.694Z,63.39
2023-09-05T05:13:35.760Z,63.61
2023-09-05T05:16:04.063Z,63.83
2023-09-05T05:18:32.385Z,63.74
2023-09-05T05:21:00.861Z,63.97
2023-09-05T05:23:29.184Z,64.12
2023-09-05T05:26:02.096Z,64.10
2023-09-05T05:28:30.638Z,64.13
2023-09-05T05:30:58.919Z,64.24
2023-09-05T05:33:27.207Z,64.22
2023-09-05T05:35:58.026Z,64.38
2023-09-05T05:38:26.541Z,64.37
2023-09-05T05:40:55.689Z,64.12
2023-09-05T05:43:24.023Z,64.36
2023-09-05T05:45:53.678Z,64.49
2023-09-05T05:48:22.128Z,64.55
2023-09-05T05:50:50.494Z,64.68
2023-09-05T05:53:18.900Z,64.56
2023-09-05T05:55:47.178Z,64.71
2023-09-05T05:58:16.264Z,64.60
2023-09-05T06:00:47.990Z,64.82
2023-09-05T06:03:17.955Z,65.02
2023-09-05T06:05:47.089Z,64.94
2023-09-05T06:08:15.425Z,64.93
2023-09-05T06:10:44.258Z,65.10
2023-09-05T06:13:13.562Z,65.10
2023-09-05T06:15:42.575Z,65.26
2023-09-05T06:18:11.052Z,65.22
2023-09-05T06:20:39.835Z,65.20
2023-09-05T06:23:08.197Z,65.31
2023-09-05T06:25:36.449Z,65.25
2023-09-05T06:28:04.946Z,65.30
2023-09-05T06:30:33.372Z,65.48
2023-09-05T06:33:01.766Z,65.41
2023-09-05T06:35:30.183Z,65.68
2023-09-05T06:37:58.495Z,65.85
2023-09-05T06:40:28.271Z,65.87
2023-09-05T06:42:56.675Z,65.81
2023-09-05T06:45:25.370Z,66.22
2023-09-05T06:47:53.930Z,66.07
2023-09-05T06:50:22.549Z,66.06
2023-09-05T06:52:51.089Z,66.30
2023-09-05T06:55:19.443Z,66.25
2023-09-05T06:57:48.522Z,66.43
2023-09-05T07:00:16.982Z,66.46
2023-09-05T07:02:45.381Z,66.44
2023-09-05T07:05:13.766Z,66.62
2023-09-05T07:07:42.621Z,66.53
2023-09-05T07:10:11.217Z,66.69
2023-09-05T07:12:39.699Z,66.75
2023-09-05T07:15:08.374Z,66.87
2023-09-05T07:17:36.921Z,67.06
2023-09-05T07:20:05.826Z,67.10
2023-09-05T07:22:34.200Z,67.19
2023-09-05T07:25:02.784Z,67.33
2023-09-05T07:27:31.322Z,67.31
2023-09-05T07:29:59.648Z,67.42
2023-09-05T07:32:28.080Z,67.51
2023-09-05T07:34:57.232Z,67.52
2023-09-05T07:37:25.571Z,67.49
2023-09-05T07:39:54.716Z,67.61
2023-09-05T07:42:23.064Z,67.68
2023-09-05T07:44:51.410Z,67.87
2023-09-05T07:47:19.750Z,67.79
2023-09-05T07:49:48.088Z,67.69
2023-09-05T07:52:16.515Z,67.78
2023-09-05T07:54:44.922Z,67.77
2023-09-05T07:57:13.294Z,67.66
2023-09-05T07:59:41.799Z,67.83
2023-09-05T08:02:12.778Z,67.74
2023-09-05T08:04:42.160Z,68.11
2023-09-05T08:07:10.682Z,68.09
2023-09-05T08:09:39.134Z,68.15
2023-09-05T08:12:07.860Z,68.30
2023-09-05T08:14:36.325Z,68.29
2023-09-05T08:17:04.742Z,68.59
2023-09-05T08:19:34.140Z,68.29
2023-09-05T08:22:02.659Z,68.61
2023-09-05T08:24:31.051Z,68.58
2023-09-05T08:26:59.742Z,68.48
2023-09-05T08:29:28.584Z,68.59
2023-09-05T08:31:56.981Z,68.59
2023-09-05T08:34:25.419Z,68.71
2023-09-05T08:36:54.090Z,68.89
2023-09-05T08:39:22.472Z,68.91
2023-09-05T08:41:51.546Z,69.08
2023-09-05T08:44:20.173Z,69.02
2023-09-05T08:46:50.084Z,68.87
2023-09-05T08:49:18.479Z,69.03
2023-09-05T08:51:51.335Z,68.80
2023-09-05T08:54:20.462Z,69.10
2023-09-05T08:56:49.483Z,68.96
2023-09-05T08:59:17.943Z,69.21
2023-09-05T09:01:46.415Z,69.37
2023-09-05T09:04:15.849Z,69.28
2023-09-05T09:06:46.123Z,69.41
2023-09-05T09:09:41.739Z,69.19
2023-09-05T09:12:10.739Z,69.35
2023-09-05T09:14:39.063Z,69.35
2023-09-05T09:17:11.531Z,69.57
2023-09-05T09:19:42.774Z,69.53
2023-09-05T09:22:11.235Z,69.63
2023-09-05T09:24:43.062Z,69.73
2023-09-05T09:27:11.938Z,69.75
2023-09-05T09:29:42.202Z,69.85
2023-09-05T09:32:10.772Z,69.98
2023-09-05T09:34:40.754Z,69.93
2023-09-05T09:37:09.331Z,70.08
2023-09-05T09:39:37.962Z,70.10
2023-09-05T09:42:06.565Z,70.17
2023-09-05T09:44:37.284Z,70.15
2023-09-05T09:47:05.947Z,70.19
2023-09-05T09:49:39.892Z,70.19
2023-09-05T09:52:14.547Z,70.01
2023-09-05T09:54:46.304Z,70.34
2023-09-05T09:57:37.165Z,70.28
2023-09-05T10:00:11.594Z,70.30
2023-09-05T10:02:41.615Z,70.45
2023-09-05T10:05:11.512Z,70.55
2023-09-05T10:07:40.797Z,70.57
2023-09-05T10:10:11.819Z,70.44
2023-09-05T10:12:40.507Z,70.59
2023-09-05T10:15:10.707Z,70.61
2023-09-05T10:17:40.341Z,70.60
2023-09-05T10:20:10.009Z,70.60
2023-09-05T10:22:46.365Z,70.61
2023-09-05T10:25:16.826Z,70.75
2023-09-05T10:27:45.131Z,70.71
2023-09-05T10:30:13.741Z,70.68
2023-09-05T10:32:48.905Z,70.77
2023-09-05T10:35:21.579Z,70.91
2023-09-05T10:37:53.924Z,70.98
2023-09-05T10:40:35.805Z,71.05
2023-09-05T10:43:07.034Z,71.04
2023-09-05T10:45:37.105Z,71.08
2023-09-05T10:48:11.307Z,71.11
2023-09-05T10:51:10.260Z,71.22
2023-09-05T10:53:51.094Z,71.05
2023-09-05T10:56:42.168Z,71.19
2023-09-05T10:59:30.275Z,71.34
2023-09-05T11:02:11.995Z,71.47
2023-09-05T11:04:41.210Z,71.28
2023-09-05T11:07:12.148Z,71.43
2023-09-05T11:09:46.553Z,71.34
2023-09-05T11:12:15.074Z,71.42
2023-09-05T11:14:43.312Z,71.31
2023-09-05T11:17:16.803Z,71.64
2023-09-05T11:19:49.378Z,71.65
2023-09-05T11:22:20.667Z,71.78
2023-09-05T11:25:00.096Z,71.77
2023-09-05T11:27:34.413Z,71.65
2023-09-05T11:30:08.863Z,71.67
2023-09-05T11:32:41.732Z,71.72
2023-09-05T11:35:12.175Z,71.60
2023-09-05T11:37:40.422Z,71.87
2023-09-05T11:40:13.809Z,71.77
2023-09-05T11:42:42.361Z,71.74
2023-09-05T11:45:21.354Z,71.53
2023-09-05T11:47:51.555Z,71.61
2023-09-05T11:50:21.511Z,71.68
2023-09-05T11:52:53.215Z,71.89
2023-09-05T11:55:25.809Z,71.85
2023-09-05T11:57:55.598Z,71.87
2023-09-05T12:00:28.165Z,71.93
2023-09-05T12:02:59.894Z,71.97
2023-09-05T12:05:28.812Z,71.88
2023-09-05T12:07:58.598Z,71.85
2023-09-05T12:10:29.605Z,72.01
2023-09-05T12:13:00.606Z,71.96
2023-09-05T12:15:39.425Z,72.04
2023-09-05T12:18:08.806Z,71.95
2023-09-05T12:20:37.688Z,71.75
2023-09-05T12:23:07.964Z,72.04
2023-09-05T12:25:50.716Z,71.90
2023-09-05T12:28:26.454Z,72.04
2023-09-05T12:31:07.444Z,71.93
2023-09-05T12:33:35.843Z,72.19
2023-09-05T12:36:04.525Z,72.08
2023-09-05T12:38:32.859Z,72.18
2023-09-05T12:41:01.410Z,72.30
2023-09-05T12:43:29.748Z,72.19
2023-09-05T12:45:58.081Z,72.17
2023-09-05T12:48:26.692Z,72.06
2023-09-05T12:50:57.133Z,72.31
2023-09-05T12:53:26.440Z,71.96
2023-09-05T12:55:54.715Z,72.27
2023-09-05T12:58:23.012Z,72.15
2023-09-05T13:00:51.374Z,72.34
2023-09-05T13:03:19.666Z,72.35
2023-09-05T13:05:47.925Z,72.38
2023-09-05T13:08:16.158Z,72.48
2023-09-05T13:10:44.428Z,72.66
2023-09-05T13:13:12.650Z,72.49
2023-09-05T13:15:45.248Z,72.33
2023-09-05T13:18:14.385Z,72.47
2023-09-05T13:20:42.677Z,72.63
2023-09-05T13:23:11.277Z,72.34
2023-09-05T13:25:39.804Z,72.61
2023-09-05T13:28:08.362Z,72.31
2023-09-05T13:30:37.072Z,72.36
2023-09-05T13:33:06.144Z,72.47
2023-09-05T13:35:34.712Z,72.59
2023-09-05T13:38:02.997Z,72.63
2023-09-05T13:40:31.561Z,72.75
2023-09-05T13:43:00.439Z,72.63
2023-09-05T13:45:29.044Z,72.71
2023-09-05T13:47:57.656Z,72.77
2023-09-05T13:50:25.972Z,72.59
2023-09-05T13:52:54.209Z,72.71
2023-09-05T13:55:22.448Z,72.80
2023-09-05T13:57:51.201Z,72.68
2023-09-05T14:00:22.301Z,72.89
2023-09-05T14:02:50.701Z,72.67
2023-09-05T14:05:19.157Z,73.00
2023-09-05T14:07:47.617Z,72.75
2023-09-05T14:10:17.759Z,72.76
2023-09-05T14:12:46.386Z,73.13
2023-09-05T14:15:15.065Z,72.87
2023-09-05T14:17:44.758Z,73.16
2023-09-05T14:20:13.719Z,72.91
2023-09-05T14:22:42.106Z,72.92
2023-09-05T14:25:10.490Z,72.95
2023-09-05T14:27:38.825Z,73.01
2023-09-05T14:30:08.914Z,73.10
2023-09-05T14:32:37.683Z,72.96
2023-09-05T14:35:06.157Z,73.05
2023-09-05T14:37:34.471Z,72.95
2023-09-05T14:40:02.889Z,72.81
2023-09-05T14:42:36.886Z,72.76
2023-09-05T14:45:06.623Z,72.91
2023-09-05T14:47:34.981Z,72.63
2023-09-05T14:50:03.333Z,72.69
2023-09-05T14:52:36.498Z,72.51
2023-09-05T14:55:09.454Z,72.62
2023-09-05T14:57:38.748Z,72.41
2023-09-05T15:00:14.065Z,72.41
2023-09-05T15:02:42.632Z,72.16
2023-09-05T15:05:11.760Z,72.03
2023-09-05T15:07:41.602Z,71.99
2023-09-05T15:10:10.448Z,72.04
2023-09-05T15:12:39.824Z,71.69
2023-09-05T15:15:08.896Z,71.70
2023-09-05T15:17:42.291Z,71.61
2023-09-05T15:20:12.340Z,71.53
2023-09-05T15:22:40.617Z,71.44
2023-09-05T15:25:17.222Z,71.33
2023-09-05T15:27:46.902Z,71.24
2023-09-05T15:30:18.008Z,70.94
2023-09-05T15:32:48.004Z,70.99
2023-09-05T15:35:17.043Z,70.92
2023-09-05T15:37:45.360Z,70.92
2023-09-05T15:40:14.473Z,70.69
2023-09-05T15:42:43.824Z,70.83
2023-09-05T15:45:13.192Z,70.82
2023-09-05T15:47:41.780Z,70.51
2023-09-05T15:50:10.691Z,70.48
2023-09-05T15:52:38.975Z,69.99
2023-09-05T15:55:07.690Z,69.68
2023-09-05T15:57:37.629Z,69.79
2023-09-05T16:00:06.665Z,69.65
2023-09-05T16:02:35.222Z,69.40
2023-09-05T16:05:03.529Z,68.89
2023-09-05T16:07:31.789Z,68.86
2023-09-05T16:10:00.028Z,68.65
2023-09-05T16:12:28.327Z,68.30
2023-09-05T16:14:56.633Z,67.96
2023-09-05T16:17:25.120Z,67.64
2023-09-05T16:19:54.150Z,67.41
2023-09-05T16:22:22.959Z,67.18
2023-09-05T16:24:51.528Z,66.89
2023-09-05T16:27:19.977Z,67.00
2023-09-05T16:29:48.317Z,66.66
2023-09-05T16:32:16.606Z,66.99
2023-09-05T16:34:45.167Z,66.80
2023-09-05T16:37:17.358Z,66.43
2023-09-05T16:39:46.602Z,66.32
2023-09-05T16:42:15.040Z,65.92
2023-09-05T16:44:43.541Z,65.94
2023-09-05T16:47:11.865Z,65.87
2023-09-05T16:49:40.176Z,65.34
2023-09-05T16:52:08.649Z,64.92
2023-09-05T16:54:37.001Z,65.13
2023-09-05T16:57:06.142Z,64.80
2023-09-05T16:59:34.453Z,64.87
2023-09-05T17:02:03.140Z,64.70
2023-09-05T17:04:32.778Z,64.09
2023-09-05T17:07:01.189Z,64.12
2023-09-05T17:09:30.362Z,63.88
2023-09-05T17:11:58.756Z,62.91
2023-09-05T17:14:28.099Z,62.61
2023-09-05T17:16:56.633Z,62.92
2023-09-05T17:19:25.007Z,62.14
2023-09-05T17:21:53.320Z,61.86
2023-09-05T17:24:21.653Z,61.71
2023-09-05T17:26:49.987Z,61.48
2023-09-05T17:29:18.566Z,61.25
2023-09-05T17:31:46.910Z,60.86
2023-09-05T17:34:16.823Z,60.73
2023-09-05T17:36:45.210Z,60.57
2023-09-05T17:39:13.509Z,60.42
2023-09-05T17:41:41.936Z,60.05
2023-09-05T17:44:10.199Z,59.51
2023-09-05T17:46:38.540Z,58.90
2023-09-05T17:49:06.920Z,58.79
2023-09-05T17:51:35.597Z,58.48
2023-09-05T17:54:05.209Z,58.40
2023-09-05T17:56:33.549Z,57.52
2023-09-05T17:59:01.934Z,57.28
2023-09-05T18:01:30.230Z,57.14
2023-09-05T18:03:59.149Z,56.97
2023-09-05T18:06:27.553Z,56.94
2023-09-05T18:08:55.861Z,57.12
2023-09-05T18:11:24.503Z,56.53
2023-09-05T18:13:52.958Z,55.87
2023-09-05T18:16:21.403Z,55.77
2023-09-05T18:18:49.921Z,55.86
2023-09-05T18:21:19.042Z,55.53
2023-09-05T18:23:47.393Z,55.33
2023-09-05T18:26:15.964Z,54.83
2023-09-05T18:28:44.372Z,54.55
2023-09-05T18:31:14.235Z,53.88
2023-09-05T18:33:43.489Z,53.78
2023-09-05T18:36:13.700Z,53.28
2023-09-05T18:38:42.440Z,53.03
2023-09-05T18:41:14.664Z,53.13
2023-09-05T18:43:43.664Z,52.78
2023-09-05T18:46:17.598Z,52.61
2023-09-05T18:48:46.404Z,52.04
2023-09-05T18:51:17.664Z,51.99
2023-09-05T18:53:47.840Z,51.77
2023-09-05T18:56:18.052Z,51.38
2023-09-05T18:58:46.476Z,50.87
2023-09-05T19:01:15.630Z,50.53
2023-09-05T19:03:45.390Z,50.71
2023-09-05T19:06:15.724Z,50.35
2023-09-05T19:08:45.902Z,49.92
2023-09-05T19:11:14.995Z,49.80
2023-09-05T19:13:44.575Z,50.17
2023-09-05T19:16:12.905Z,49.94
2023-09-05T19:18:43.677Z,49.85
2023-09-05T19:21:12.055Z,49.45
2023-09-05T19:23:40.298Z,49.37
2023-09-05T19:26:08.610Z,49.22
2023-09-05T19:28:36.872Z,49.17
2023-09-05T19:31:05.168Z,49.12
2023-09-05T19:33:33.524Z,48.87
2023-09-05T19:36:03.164Z,48.96
2023-09-05T19:38:31.456Z,48.62
2023-09-05T19:40:59.845Z,48.19
2023-09-05T19:43:28.085Z,47.77
2023-09-05T19:45:57.078Z,47.38
2023-09-05T19:48:25.426Z,47.57
2023-09-05T19:50:53.661Z,47.35
2023-09-05T19:53:24.418Z,47.21
2023-09-05T19:55:52.971Z,47.46
2023-09-05T19:58:21.202Z,47.16
2023-09-05T20:00:50.916Z,47.38
2023-09-05T20:03:19.855Z,46.66
2023-09-05T20:05:48.316Z,46.64
2023-09-05T20:08:16.796Z,46.82
2023-09-05T20:10:45.566Z,46.54
2023-09-05T20:13:13.860Z,46.50
2023-09-05T20:15:42.429Z,46.05
2023-09-05T20:18:10.800Z,46.25
2023-09-05T20:20:39.189Z,46.21
2023-09-05T20:23:07.630Z,46.16
2023-09-05T20:25:36.250Z,45.19
2023-09-05T20:28:06.128Z,45.63
2023-09-05T20:30:34.501Z,45.55
2023-09-05T20:33:02.793Z,45.37
2023-09-05T20:35:31.487Z,45.43
2023-09-05T20:37:59.811Z,45.38
2023-09-05T20:40:28.899Z,44.94
2023-09-05T20:42:57.271Z,45.23
2023-09-05T20:45:29.473Z,44.40
2023-09-05T20:47:57.877Z,43.22
2023-09-05T20:50:26.256Z,43.72
2023-09-05T20:52:54.460Z,44.06
2023-09-05T20:55:22.709Z,43.80
2023-09-05T20:57:51.019Z,43.71
2023-09-05T21:00:23.146Z,43.11
2023-09-05T21:02:52.010Z,43.01
2023-09-05T21:05:20.516Z,42.80
2023-09-05T21:07:48.787Z,41.79
2023-09-05T21:10:17.149Z,42.03
2023-09-05T21:12:45.560Z,41.73
2023-09-05T21:15:14.523Z,41.95
2023-09-05T21:17:45.756Z,41.21
2023-09-05T21:20:17.357Z,41.15
2023-09-05T21:22:46.645Z,40.51
2023-09-05T21:25:15.916Z,40.11
2023-09-05T21:27:44.535Z,39.71
2023-09-05T21:30:12.912Z,40.17
2023-09-05T21:32:41.607Z,39.77
2023-09-05T21:35:10.401Z,39.40
2023-09-05T21:37:38.916Z,39.43
2023-09-05T21:40:07.929Z,39.15
2023-09-05T21:42:36.263Z,38.94
2023-09-05T21:45:04.723Z,39.23
2023-09-05T21:47:35.980Z,38.92
2023-09-05T21:50:04.966Z,38.63
2023-09-05T21:52:33.248Z,37.88
2023-09-05T21:55:01.649Z,37.91
2023-09-05T21:57:30.095Z,38.33
2023-09-05T21:59:58.392Z,37.41
2023-09-05T22:02:27.668Z,37.87
2023-09-05T22:04:56.004Z,37.62
2023-09-05T22:07:25.839Z,37.22
2023-09-05T22:09:54.260Z,37.13
2023-09-05T22:12:22.839Z,37.06
2023-09-05T22:14:51.113Z,36.42
2023-09-05T22:17:19.439Z,36.52
2023-09-05T22:19:48.999Z,36.46
2023-09-05T22:22:17.294Z,36.46
2023-09-05T22:24:45.587Z,36.13
2023-09-05T22:27:13.868Z,35.93
2023-09-05T22:29:42.390Z,36.24
2023-09-05T22:32:10.729Z,36.45
2023-09-05T22:34:40.090Z,35.94
2023-09-05T22:37:11.770Z,35.72
2023-09-05T22:39:40.141Z,35.85
2023-09-05T22:42:09.652Z,36.15
2023-09-05T22:44:38.049Z,36.22
2023-09-05T22:47:06.567Z,36.52
2023-09-05T22:49:35.266Z,36.68
2023-09-05T22:52:04.537Z,36.53
2023-09-05T22:54:32.996Z,36.35
2023-09-05T22:57:01.330Z,36.98
2023-09-05T22:59:29.577Z,37.33
2023-09-05T23:01:57.906Z,37.45
2023-09-05T23:04:26.340Z,37.90
2023-09-05T23:06:54.912Z,38.27
2023-09-05T23:09:23.227Z,38.54
2023-09-05T23:11:51.525Z,38.77
2023-09-05T23:14:19.776Z,38.65
2023-09-05T23:16:48.154Z,38.34
2023-09-05T23:19:16.892Z,39.16
2023-09-05T23:21:45.875Z,39.05
2023-09-05T23:24:14.303Z,38.84
2023-09-05T23:26:42.770Z,39.25
2023-09-05T23:29:11.482Z,39.34
2023-09-05T23:31:40.825Z,39.15
2023-09-05T23:34:09.361Z,39.60
2023-09-05T23:36:37.678Z,39.72
2023-09-05T23:39:06.779Z,39.96
2023-09-05T23:41:35.143Z,40.07
2023-09-05T23:44:03.475Z,39.69
2023-09-05T23:46:32.177Z,39.36
2023-09-05T23:49:02.413Z,39.49
2023-09-05T23:51:31.286Z,40.00
2023-09-05T23:53:59.739Z,39.43
2023-09-05T23:56:30.140Z,39.60
2023-09-05T23:58:58.522Z,39.84
